sensor_id;sensor_type;location;lat;lon;timestamp;P1;durP1;ratioP1;P2;durP2;ratioP2
47715;SDS011;33476;50.984;3.538;2024-02-26T00:01:48;1.77;;;0.28;;
47715;SDS011;33476;50.984;3.538;2024-02-26T00:04:13;1.52;;;0.20;;
47715;SDS011;33476;50.984;3.538;2024-02-26T00:06:39;1.75;;;0.28;;
47715;SDS011;33476;50.984;3.538;2024-02-26T00:09:08;3.60;;;0.20;;
47715;SDS011;33476;50.984;3.538;2024-02-26T00:11:36;1.08;;;0.20;;
47715;SDS011;33476;50.984;3.538;2024-02-26T00:14:02;1.10;;;0.20;;
47715;SDS011;33476;50.984;3.538;2024-02-26T00:16:28;2.13;;;0.30;;
47715;SDS011;33476;50.984;3.538;2024-02-26T00:18:53;0.75;;;0.20;;
47715;SDS011;33476;50.984;3.538;2024-02-26T00:21:18;1.00;;;0.25;;
47715;SDS011;33476;50.984;3.538;2024-02-26T00:23:44;1.85;;;0.30;;
47715;SDS011;33476;50.984;3.538;2024-02-26T00:26:09;1.00;;;0.30;;
47715;SDS011;33476;50.984;3.538;2024-02-26T00:28:35;0.90;;;0.20;;
47715;SDS011;33476;50.984;3.538;2024-02-26T00:31:01;2.10;;;0.35;;
47715;SDS011;33476;50.984;3.538;2024-02-26T00:33:27;5.63;;;0.40;;
47715;SDS011;33476;50.984;3.538;2024-02-26T00:35:52;1.58;;;0.20;;
47715;SDS011;33476;50.984;3.538;2024-02-26T00:38:18;1.45;;;0.30;;
47715;SDS011;33476;50.984;3.538;2024-02-26T00:40:43;3.40;;;0.35;;
47715;SDS011;33476;50.984;3.538;2024-02-26T00:43:08;1.02;;;0.30;;
47715;SDS011;33476;50.984;3.538;2024-02-26T00:45:34;1.00;;;0.20;;
47715;SDS011;33476;50.984;3.538;2024-02-26T00:47:59;1.30;;;0.20;;
47715;SDS011;33476;50.984;3.538;2024-02-26T00:50:36;2.08;;;0.22;;
47715;SDS011;33476;50.984;3.538;2024-02-26T00:53:01;1.63;;;0.35;;
47715;SDS011;33476;50.984;3.538;2024-02-26T00:55:26;1.15;;;0.25;;
47715;SDS011;33476;50.984;3.538;2024-02-26T00:57:52;3.10;;;0.30;;
47715;SDS011;33476;50.984;3.538;2024-02-26T01:00:17;2.63;;;0.40;;
47715;SDS011;33476;50.984;3.538;2024-02-26T01:02:43;2.15;;;0.20;;
47715;SDS011;33476;50.984;3.538;2024-02-26T01:05:11;1.63;;;0.30;;
47715;SDS011;33476;50.984;3.538;2024-02-26T01:07:36;0.90;;;0.20;;
47715;SDS011;33476;50.984;3.538;2024-02-26T01:10:02;0.52;;;0.30;;
47715;SDS011;33476;50.984;3.538;2024-02-26T01:12:28;1.23;;;0.30;;
47715;SDS011;33476;50.984;3.538;2024-02-26T01:14:53;1.95;;;0.30;;
47715;SDS011;33476;50.984;3.538;2024-02-26T01:17:18;0.88;;;0.30;;
47715;SDS011;33476;50.984;3.538;2024-02-26T01:19:44;1.80;;;0.20;;
47715;SDS011;33476;50.984;3.538;2024-02-26T01:22:09;0.70;;;0.20;;
47715;SDS011;33476;50.984;3.538;2024-02-26T01:24:34;1.98;;;0.20;;
47715;SDS011;33476;50.984;3.538;2024-02-26T01:27:00;1.35;;;0.30;;
47715;SDS011;33476;50.984;3.538;2024-02-26T01:29:25;0.90;;;0.20;;
47715;SDS011;33476;50.984;3.538;2024-02-26T01:31:50;1.42;;;0.30;;
47715;SDS011;33476;50.984;3.538;2024-02-26T01:34:16;0.95;;;0.20;;
47715;SDS011;33476;50.984;3.538;2024-02-26T01:36:43;2.28;;;0.30;;
47715;SDS011;33476;50.984;3.538;2024-02-26T01:39:09;4.30;;;0.20;;
47715;SDS011;33476;50.984;3.538;2024-02-26T01:41:37;0.80;;;0.10;;
47715;SDS011;33476;50.984;3.538;2024-02-26T01:44:06;0.73;;;0.20;;
47715;SDS011;33476;50.984;3.538;2024-02-26T01:46:32;4.07;;;0.30;;
47715;SDS011;33476;50.984;3.538;2024-02-26T01:48:59;1.60;;;0.38;;
47715;SDS011;33476;50.984;3.538;2024-02-26T01:51:25;0.93;;;0.30;;
47715;SDS011;33476;50.984;3.538;2024-02-26T01:53:51;1.13;;;0.20;;
47715;SDS011;33476;50.984;3.538;2024-02-26T01:56:16;1.25;;;0.30;;
47715;SDS011;33476;50.984;3.538;2024-02-26T01:58:43;1.42;;;0.20;;
47715;SDS011;33476;50.984;3.538;2024-02-26T02:01:09;1.83;;;0.30;;
47715;SDS011;33476;50.984;3.538;2024-02-26T02:03:34;1.08;;;0.20;;
47715;SDS011;33476;50.984;3.538;2024-02-26T02:06:01;1.23;;;0.20;;
47715;SDS011;33476;50.984;3.538;2024-02-26T02:08:28;2.67;;;0.28;;
47715;SDS011;33476;50.984;3.538;2024-02-26T02:10:53;1.10;;;0.30;;
47715;SDS011;33476;50.984;3.538;2024-02-26T02:13:19;1.25;;;0.22;;
47715;SDS011;33476;50.984;3.538;2024-02-26T02:15:44;1.05;;;0.22;;
47715;SDS011;33476;50.984;3.538;2024-02-26T02:18:09;0.50;;;0.20;;
47715;SDS011;33476;50.984;3.538;2024-02-26T02:20:35;0.63;;;0.20;;
47715;SDS011;33476;50.984;3.538;2024-02-26T02:23:01;1.67;;;0.20;;
47715;SDS011;33476;50.984;3.538;2024-02-26T02:25:27;4.25;;;0.30;;
47715;SDS011;33476;50.984;3.538;2024-02-26T02:27:53;0.85;;;0.30;;
47715;SDS011;33476;50.984;3.538;2024-02-26T02:30:24;1.13;;;0.28;;
47715;SDS011;33476;50.984;3.538;2024-02-26T02:32:51;1.05;;;0.40;;
47715;SDS011;33476;50.984;3.538;2024-02-26T02:35:17;1.48;;;0.47;;
47715;SDS011;33476;50.984;3.538;2024-02-26T02:37:42;2.08;;;0.40;;
47715;SDS011;33476;50.984;3.538;2024-02-26T02:40:08;1.73;;;0.30;;
47715;SDS011;33476;50.984;3.538;2024-02-26T02:42:33;3.25;;;0.40;;
47715;SDS011;33476;50.984;3.538;2024-02-26T02:44:58;1.58;;;0.30;;
47715;SDS011;33476;50.984;3.538;2024-02-26T02:47:24;1.58;;;0.40;;
47715;SDS011;33476;50.984;3.538;2024-02-26T02:49:49;1.13;;;0.40;;
47715;SDS011;33476;50.984;3.538;2024-02-26T02:52:15;0.65;;;0.30;;
47715;SDS011;33476;50.984;3.538;2024-02-26T02:54:40;1.83;;;0.30;;
47715;SDS011;33476;50.984;3.538;2024-02-26T02:57:06;1.40;;;0.40;;
47715;SDS011;33476;50.984;3.538;2024-02-26T02:59:32;2.97;;;0.30;;
47715;SDS011;33476;50.984;3.538;2024-02-26T03:01:58;2.65;;;0.28;;
47715;SDS011;33476;50.984;3.538;2024-02-26T03:04:23;1.30;;;0.20;;
47715;SDS011;33476;50.984;3.538;2024-02-26T03:06:48;1.17;;;0.40;;
47715;SDS011;33476;50.984;3.538;2024-02-26T03:09:14;0.65;;;0.20;;
47715;SDS011;33476;50.984;3.538;2024-02-26T03:11:39;1.75;;;0.40;;
47715;SDS011;33476;50.984;3.538;2024-02-26T03:14:05;2.58;;;0.38;;
47715;SDS011;33476;50.984;3.538;2024-02-26T03:16:31;1.95;;;0.35;;
47715;SDS011;33476;50.984;3.538;2024-02-26T03:18:56;3.10;;;0.50;;
47715;SDS011;33476;50.984;3.538;2024-02-26T03:21:22;0.70;;;0.20;;
47715;SDS011;33476;50.984;3.538;2024-02-26T03:23:47;2.38;;;0.40;;
47715;SDS011;33476;50.984;3.538;2024-02-26T03:26:12;1.52;;;0.30;;
47715;SDS011;33476;50.984;3.538;2024-02-26T03:28:39;1.40;;;0.50;;
47715;SDS011;33476;50.984;3.538;2024-02-26T03:31:05;0.75;;;0.40;;
47715;SDS011;33476;50.984;3.538;2024-02-26T03:33:30;2.78;;;0.73;;
47715;SDS011;33476;50.984;3.538;2024-02-26T03:35:56;0.98;;;0.40;;
47715;SDS011;33476;50.984;3.538;2024-02-26T03:38:21;1.70;;;0.45;;
47715;SDS011;33476;50.984;3.538;2024-02-26T03:40:47;1.60;;;0.63;;
47715;SDS011;33476;50.984;3.538;2024-02-26T03:43:13;3.63;;;0.70;;
47715;SDS011;33476;50.984;3.538;2024-02-26T03:45:39;2.03;;;0.60;;
47715;SDS011;33476;50.984;3.538;2024-02-26T03:48:04;1.80;;;0.88;;
47715;SDS011;33476;50.984;3.538;2024-02-26T03:50:30;1.17;;;0.82;;
47715;SDS011;33476;50.984;3.538;2024-02-26T03:52:55;1.40;;;1.30;;
47715;SDS011;33476;50.984;3.538;2024-02-26T03:55:22;3.78;;;1.20;;
47715;SDS011;33476;50.984;3.538;2024-02-26T03:57:50;1.40;;;1.20;;
47715;SDS011;33476;50.984;3.538;2024-02-26T04:00:16;1.38;;;1.10;;
47715;SDS011;33476;50.984;3.538;2024-02-26T04:02:42;1.60;;;1.30;;
47715;SDS011;33476;50.984;3.538;2024-02-26T04:05:11;2.30;;;1.30;;
47715;SDS011;33476;50.984;3.538;2024-02-26T04:07:36;2.85;;;1.17;;
47715;SDS011;33476;50.984;3.538;2024-02-26T04:10:02;3.65;;;1.15;;
47715;SDS011;33476;50.984;3.538;2024-02-26T04:12:30;1.98;;;1.55;;
47715;SDS011;33476;50.984;3.538;2024-02-26T04:14:56;1.90;;;1.38;;
47715;SDS011;33476;50.984;3.538;2024-02-26T04:17:21;2.42;;;1.20;;
47715;SDS011;33476;50.984;3.538;2024-02-26T04:19:47;2.63;;;1.42;;
47715;SDS011;33476;50.984;3.538;2024-02-26T04:22:12;1.90;;;1.42;;
47715;SDS011;33476;50.984;3.538;2024-02-26T04:24:37;1.40;;;1.30;;
47715;SDS011;33476;50.984;3.538;2024-02-26T04:27:03;2.83;;;1.88;;
47715;SDS011;33476;50.984;3.538;2024-02-26T04:29:28;2.30;;;1.98;;
47715;SDS011;33476;50.984;3.538;2024-02-26T04:31:53;3.08;;;1.90;;
47715;SDS011;33476;50.984;3.538;2024-02-26T04:34:19;2.65;;;2.28;;
47715;SDS011;33476;50.984;3.538;2024-02-26T04:36:44;2.70;;;1.85;;
47715;SDS011;33476;50.984;3.538;2024-02-26T04:39:09;3.80;;;1.88;;
47715;SDS011;33476;50.984;3.538;2024-02-26T04:41:35;3.42;;;2.30;;
47715;SDS011;33476;50.984;3.538;2024-02-26T04:44:01;2.83;;;2.15;;
47715;SDS011;33476;50.984;3.538;2024-02-26T04:46:26;5.25;;;2.65;;
47715;SDS011;33476;50.984;3.538;2024-02-26T04:48:53;4.53;;;2.53;;
47715;SDS011;33476;50.984;3.538;2024-02-26T04:51:19;5.03;;;2.28;;
47715;SDS011;33476;50.984;3.538;2024-02-26T04:53:44;2.70;;;2.42;;
47715;SDS011;33476;50.984;3.538;2024-02-26T04:56:09;4.07;;;2.45;;
47715;SDS011;33476;50.984;3.538;2024-02-26T04:58:35;2.53;;;2.25;;
47715;SDS011;33476;50.984;3.538;2024-02-26T05:01:00;2.85;;;2.22;;
47715;SDS011;33476;50.984;3.538;2024-02-26T05:03:26;3.40;;;2.35;;
47715;SDS011;33476;50.984;3.538;2024-02-26T05:05:51;2.53;;;1.90;;
47715;SDS011;33476;50.984;3.538;2024-02-26T05:08:16;2.50;;;2.08;;
47715;SDS011;33476;50.984;3.538;2024-02-26T05:10:42;3.97;;;2.08;;
47715;SDS011;33476;50.984;3.538;2024-02-26T05:13:08;2.03;;;1.83;;
47715;SDS011;33476;50.984;3.538;2024-02-26T05:15:34;2.67;;;2.05;;
47715;SDS011;33476;50.984;3.538;2024-02-26T05:17:59;4.85;;;2.35;;
47715;SDS011;33476;50.984;3.538;2024-02-26T05:20:25;2.88;;;2.20;;
47715;SDS011;33476;50.984;3.538;2024-02-26T05:22:50;2.70;;;2.00;;
47715;SDS011;33476;50.984;3.538;2024-02-26T05:25:16;3.25;;;2.03;;
47715;SDS011;33476;50.984;3.538;2024-02-26T05:27:42;3.17;;;1.70;;
47715;SDS011;33476;50.984;3.538;2024-02-26T05:30:08;4.57;;;1.75;;
47715;SDS011;33476;50.984;3.538;2024-02-26T05:32:34;1.90;;;1.60;;
47715;SDS011;33476;50.984;3.538;2024-02-26T05:34:59;2.22;;;1.60;;
47715;SDS011;33476;50.984;3.538;2024-02-26T05:37:25;1.92;;;1.70;;
47715;SDS011;33476;50.984;3.538;2024-02-26T05:39:50;2.85;;;1.60;;
47715;SDS011;33476;50.984;3.538;2024-02-26T05:42:15;2.03;;;1.58;;
47715;SDS011;33476;50.984;3.538;2024-02-26T05:44:41;2.83;;;1.63;;
47715;SDS011;33476;50.984;3.538;2024-02-26T05:47:06;2.22;;;1.40;;
47715;SDS011;33476;50.984;3.538;2024-02-26T05:49:31;2.83;;;1.42;;
47715;SDS011;33476;50.984;3.538;2024-02-26T05:51:58;1.80;;;1.40;;
47715;SDS011;33476;50.984;3.538;2024-02-26T05:54:23;2.53;;;1.52;;
47715;SDS011;33476;50.984;3.538;2024-02-26T05:56:49;1.63;;;1.40;;
47715;SDS011;33476;50.984;3.538;2024-02-26T05:59:14;2.22;;;1.35;;
47715;SDS011;33476;50.984;3.538;2024-02-26T06:01:40;3.30;;;1.63;;
47715;SDS011;33476;50.984;3.538;2024-02-26T06:04:06;2.50;;;1.70;;
47715;SDS011;33476;50.984;3.538;2024-02-26T06:06:31;1.67;;;1.58;;
47715;SDS011;33476;50.984;3.538;2024-02-26T06:08:57;2.30;;;1.70;;
47715;SDS011;33476;50.984;3.538;2024-02-26T06:11:22;3.03;;;1.77;;
47715;SDS011;33476;50.984;3.538;2024-02-26T06:13:48;4.07;;;1.83;;
47715;SDS011;33476;50.984;3.538;2024-02-26T06:16:13;2.10;;;1.90;;
47715;SDS011;33476;50.984;3.538;2024-02-26T06:18:39;4.00;;;2.25;;
47715;SDS011;33476;50.984;3.538;2024-02-26T06:21:04;2.03;;;1.83;;
47715;SDS011;33476;50.984;3.538;2024-02-26T06:23:34;4.65;;;2.55;;
47715;SDS011;33476;50.984;3.538;2024-02-26T06:25:59;3.78;;;2.30;;
47715;SDS011;33476;50.984;3.538;2024-02-26T06:28:24;2.72;;;2.53;;
47715;SDS011;33476;50.984;3.538;2024-02-26T06:30:50;2.95;;;2.75;;
47715;SDS011;33476;50.984;3.538;2024-02-26T06:33:17;6.32;;;2.90;;
47715;SDS011;33476;50.984;3.538;2024-02-26T06:35:42;3.22;;;2.90;;
47715;SDS011;33476;50.984;3.538;2024-02-26T06:38:09;4.70;;;2.97;;
47715;SDS011;33476;50.984;3.538;2024-02-26T06:40:35;4.18;;;3.08;;
47715;SDS011;33476;50.984;3.538;2024-02-26T06:43:00;3.53;;;3.20;;
47715;SDS011;33476;50.984;3.538;2024-02-26T06:45:25;5.30;;;3.17;;
47715;SDS011;33476;50.984;3.538;2024-02-26T06:47:51;3.45;;;3.05;;
47715;SDS011;33476;50.984;3.538;2024-02-26T06:50:16;4.22;;;3.55;;
47715;SDS011;33476;50.984;3.538;2024-02-26T06:52:43;6.28;;;3.40;;
47715;SDS011;33476;50.984;3.538;2024-02-26T06:55:09;3.17;;;2.67;;
47715;SDS011;33476;50.984;3.538;2024-02-26T06:57:35;4.35;;;2.97;;
47715;SDS011;33476;50.984;3.538;2024-02-26T07:00:00;3.88;;;3.03;;
47715;SDS011;33476;50.984;3.538;2024-02-26T07:02:25;3.28;;;2.88;;
47715;SDS011;33476;50.984;3.538;2024-02-26T07:04:51;4.53;;;2.60;;
47715;SDS011;33476;50.984;3.538;2024-02-26T07:07:16;4.05;;;2.42;;
47715;SDS011;33476;50.984;3.538;2024-02-26T07:09:43;2.65;;;2.45;;
47715;SDS011;33476;50.984;3.538;2024-02-26T07:12:09;4.25;;;2.33;;
47715;SDS011;33476;50.984;3.538;2024-02-26T07:14:34;3.78;;;2.47;;
47715;SDS011;33476;50.984;3.538;2024-02-26T07:17:00;2.22;;;2.03;;
47715;SDS011;33476;50.984;3.538;2024-02-26T07:19:25;4.30;;;2.85;;
47715;SDS011;33476;50.984;3.538;2024-02-26T07:21:50;4.05;;;2.00;;
47715;SDS011;33476;50.984;3.538;2024-02-26T07:24:17;3.20;;;2.58;;
47715;SDS011;33476;50.984;3.538;2024-02-26T07:26:42;3.47;;;2.50;;
47715;SDS011;33476;50.984;3.538;2024-02-26T07:29:07;2.53;;;2.33;;
47715;SDS011;33476;50.984;3.538;2024-02-26T07:31:33;2.60;;;1.98;;
47715;SDS011;33476;50.984;3.538;2024-02-26T07:33:58;3.08;;;2.38;;
47715;SDS011;33476;50.984;3.538;2024-02-26T07:36:24;2.50;;;1.92;;
47715;SDS011;33476;50.984;3.538;2024-02-26T07:38:49;3.38;;;2.33;;
47715;SDS011;33476;50.984;3.538;2024-02-26T07:41:17;3.72;;;2.17;;
47715;SDS011;33476;50.984;3.538;2024-02-26T07:43:42;2.42;;;1.67;;
47715;SDS011;33476;50.984;3.538;2024-02-26T07:46:07;1.92;;;1.73;;
47715;SDS011;33476;50.984;3.538;2024-02-26T07:48:36;2.15;;;1.92;;
47715;SDS011;33476;50.984;3.538;2024-02-26T07:51:01;2.20;;;2.00;;
47715;SDS011;33476;50.984;3.538;2024-02-26T07:53:28;2.22;;;1.88;;
47715;SDS011;33476;50.984;3.538;2024-02-26T07:55:53;2.63;;;1.98;;
47715;SDS011;33476;50.984;3.538;2024-02-26T07:58:18;3.42;;;1.73;;
47715;SDS011;33476;50.984;3.538;2024-02-26T08:00:44;4.18;;;2.05;;
47715;SDS011;33476;50.984;3.538;2024-02-26T08:03:11;2.55;;;2.08;;
47715;SDS011;33476;50.984;3.538;2024-02-26T08:05:38;2.40;;;1.75;;
47715;SDS011;33476;50.984;3.538;2024-02-26T08:08:05;3.05;;;1.95;;
47715;SDS011;33476;50.984;3.538;2024-02-26T08:10:31;3.08;;;1.65;;
47715;SDS011;33476;50.984;3.538;2024-02-26T08:12:56;2.72;;;1.65;;
47715;SDS011;33476;50.984;3.538;2024-02-26T08:15:29;4.72;;;1.90;;
47715;SDS011;33476;50.984;3.538;2024-02-26T08:17:55;3.45;;;1.95;;
47715;SDS011;33476;50.984;3.538;2024-02-26T08:20:21;2.17;;;1.60;;
47715;SDS011;33476;50.984;3.538;2024-02-26T08:22:46;2.05;;;1.70;;
47715;SDS011;33476;50.984;3.538;2024-02-26T08:25:11;3.30;;;1.85;;
47715;SDS011;33476;50.984;3.538;2024-02-26T08:27:37;1.92;;;1.50;;
47715;SDS011;33476;50.984;3.538;2024-02-26T08:30:02;2.00;;;1.55;;
47715;SDS011;33476;50.984;3.538;2024-02-26T08:32:27;2.30;;;1.98;;
47715;SDS011;33476;50.984;3.538;2024-02-26T08:34:53;5.72;;;2.15;;
47715;SDS011;33476;50.984;3.538;2024-02-26T08:37:18;2.78;;;1.67;;
47715;SDS011;33476;50.984;3.538;2024-02-26T08:39:43;3.25;;;1.92;;
47715;SDS011;33476;50.984;3.538;2024-02-26T08:42:10;3.03;;;2.10;;
47715;SDS011;33476;50.984;3.538;2024-02-26T08:44:36;4.18;;;2.17;;
47715;SDS011;33476;50.984;3.538;2024-02-26T08:47:01;3.15;;;2.10;;
47715;SDS011;33476;50.984;3.538;2024-02-26T08:49:27;5.00;;;2.40;;
47715;SDS011;33476;50.984;3.538;2024-02-26T08:51:52;3.03;;;2.60;;
47715;SDS011;33476;50.984;3.538;2024-02-26T08:54:18;3.10;;;2.40;;
47715;SDS011;33476;50.984;3.538;2024-02-26T08:56:43;3.90;;;2.45;;
47715;SDS011;33476;50.984;3.538;2024-02-26T08:59:09;5.30;;;2.22;;
47715;SDS011;33476;50.984;3.538;2024-02-26T09:01:34;6.13;;;2.20;;
47715;SDS011;33476;50.984;3.538;2024-02-26T09:03:59;6.60;;;2.30;;
47715;SDS011;33476;50.984;3.538;2024-02-26T09:06:25;3.85;;;2.15;;
47715;SDS011;33476;50.984;3.538;2024-02-26T09:08:50;2.88;;;1.88;;
47715;SDS011;33476;50.984;3.538;2024-02-26T09:11:15;4.53;;;2.53;;
47715;SDS011;33476;50.984;3.538;2024-02-26T09:13:41;3.35;;;2.15;;
47715;SDS011;33476;50.984;3.538;2024-02-26T09:16:07;3.67;;;2.22;;
47715;SDS011;33476;50.984;3.538;2024-02-26T09:18:32;3.95;;;1.90;;
47715;SDS011;33476;50.984;3.538;2024-02-26T09:20:58;3.15;;;2.17;;
47715;SDS011;33476;50.984;3.538;2024-02-26T09:23:23;3.85;;;1.92;;
47715;SDS011;33476;50.984;3.538;2024-02-26T09:25:48;3.92;;;2.17;;
47715;SDS011;33476;50.984;3.538;2024-02-26T09:28:14;5.68;;;2.47;;
47715;SDS011;33476;50.984;3.538;2024-02-26T09:30:42;3.85;;;2.38;;
47715;SDS011;33476;50.984;3.538;2024-02-26T09:33:08;3.30;;;2.30;;
47715;SDS011;33476;50.984;3.538;2024-02-26T09:35:33;3.75;;;2.20;;
47715;SDS011;33476;50.984;3.538;2024-02-26T09:37:59;4.68;;;2.70;;
47715;SDS011;33476;50.984;3.538;2024-02-26T09:40:24;3.75;;;2.35;;
47715;SDS011;33476;50.984;3.538;2024-02-26T09:42:49;4.22;;;2.80;;
47715;SDS011;33476;50.984;3.538;2024-02-26T09:45:21;7.50;;;2.83;;
47715;SDS011;33476;50.984;3.538;2024-02-26T09:47:48;5.68;;;3.10;;
47715;SDS011;33476;50.984;3.538;2024-02-26T09:50:14;4.30;;;3.00;;
47715;SDS011;33476;50.984;3.538;2024-02-26T09:52:42;5.95;;;3.58;;
47715;SDS011;33476;50.984;3.538;2024-02-26T09:55:08;6.90;;;3.42;;
47715;SDS011;33476;50.984;3.538;2024-02-26T09:57:37;4.85;;;3.28;;
47715;SDS011;33476;50.984;3.538;2024-02-26T10:00:03;3.97;;;3.35;;
47715;SDS011;33476;50.984;3.538;2024-02-26T10:02:33;5.43;;;3.38;;
47715;SDS011;33476;50.984;3.538;2024-02-26T10:05:02;4.97;;;3.58;;
47715;SDS011;33476;50.984;3.538;2024-02-26T10:07:30;4.72;;;3.72;;
47715;SDS011;33476;50.984;3.538;2024-02-26T10:09:55;5.30;;;3.78;;
47715;SDS011;33476;50.984;3.538;2024-02-26T10:12:21;5.72;;;3.20;;
47715;SDS011;33476;50.984;3.538;2024-02-26T10:14:46;5.97;;;3.47;;
47715;SDS011;33476;50.984;3.538;2024-02-26T10:17:12;6.13;;;3.85;;
47715;SDS011;33476;50.984;3.538;2024-02-26T10:19:37;6.47;;;3.72;;
47715;SDS011;33476;50.984;3.538;2024-02-26T10:22:03;9.10;;;3.42;;
47715;SDS011;33476;50.984;3.538;2024-02-26T10:24:29;6.28;;;3.47;;
47715;SDS011;33476;50.984;3.538;2024-02-26T10:26:56;5.47;;;3.58;;
47715;SDS011;33476;50.984;3.538;2024-02-26T10:29:23;5.97;;;3.97;;
47715;SDS011;33476;50.984;3.538;2024-02-26T10:31:50;7.00;;;3.95;;
47715;SDS011;33476;50.984;3.538;2024-02-26T10:34:16;5.20;;;3.67;;
47715;SDS011;33476;50.984;3.538;2024-02-26T10:36:42;6.03;;;3.95;;
47715;SDS011;33476;50.984;3.538;2024-02-26T10:39:08;7.80;;;3.75;;
47715;SDS011;33476;50.984;3.538;2024-02-26T10:41:34;7.53;;;3.70;;
47715;SDS011;33476;50.984;3.538;2024-02-26T10:44:00;6.82;;;3.75;;
47715;SDS011;33476;50.984;3.538;2024-02-26T10:46:25;6.85;;;3.78;;
47715;SDS011;33476;50.984;3.538;2024-02-26T10:48:52;6.63;;;3.65;;
47715;SDS011;33476;50.984;3.538;2024-02-26T10:51:22;6.32;;;3.83;;
47715;SDS011;33476;50.984;3.538;2024-02-26T10:53:52;7.38;;;4.18;;
47715;SDS011;33476;50.984;3.538;2024-02-26T10:56:24;8.48;;;4.85;;
47715;SDS011;33476;50.984;3.538;2024-02-26T10:58:52;6.65;;;4.55;;
47715;SDS011;33476;50.984;3.538;2024-02-26T11:01:18;10.60;;;4.95;;
47715;SDS011;33476;50.984;3.538;2024-02-26T11:03:45;11.32;;;5.88;;
47715;SDS011;33476;50.984;3.538;2024-02-26T11:06:11;10.27;;;5.68;;
47715;SDS011;33476;50.984;3.538;2024-02-26T11:08:37;9.68;;;5.90;;
47715;SDS011;33476;50.984;3.538;2024-02-26T11:11:03;10.68;;;5.78;;
47715;SDS011;33476;50.984;3.538;2024-02-26T11:13:30;10.20;;;5.63;;
47715;SDS011;33476;50.984;3.538;2024-02-26T11:15:57;11.15;;;6.30;;
47715;SDS011;33476;50.984;3.538;2024-02-26T11:18:23;10.18;;;5.45;;
47715;SDS011;33476;50.984;3.538;2024-02-26T11:20:52;10.27;;;5.90;;
47715;SDS011;33476;50.984;3.538;2024-02-26T11:23:22;11.45;;;6.68;;
47715;SDS011;33476;50.984;3.538;2024-02-26T11:25:48;12.80;;;7.00;;
47715;SDS011;33476;50.984;3.538;2024-02-26T11:28:16;13.80;;;6.75;;
47715;SDS011;33476;50.984;3.538;2024-02-26T11:30:45;10.48;;;6.88;;
47715;SDS011;33476;50.984;3.538;2024-02-26T11:33:13;12.30;;;6.82;;
47715;SDS011;33476;50.984;3.538;2024-02-26T11:35:39;12.52;;;7.25;;
47715;SDS011;33476;50.984;3.538;2024-02-26T11:38:05;10.85;;;6.65;;
47715;SDS011;33476;50.984;3.538;2024-02-26T11:40:32;9.48;;;6.60;;
47715;SDS011;33476;50.984;3.538;2024-02-26T11:42:58;9.75;;;6.18;;
47715;SDS011;33476;50.984;3.538;2024-02-26T11:48:10;9.80;;;6.03;;
47715;SDS011;33476;50.984;3.538;2024-02-26T11:50:39;11.40;;;6.25;;
47715;SDS011;33476;50.984;3.538;2024-02-26T11:59:03;7.88;;;5.55;;
47715;SDS011;33476;50.984;3.538;2024-02-26T12:01:47;7.22;;;5.13;;
47715;SDS011;33476;50.984;3.538;2024-02-26T12:04:14;8.25;;;4.40;;
47715;SDS011;33476;50.984;3.538;2024-02-26T12:09:11;5.82;;;4.32;;
47715;SDS011;33476;50.984;3.538;2024-02-26T12:11:38;7.15;;;4.20;;
47715;SDS011;33476;50.984;3.538;2024-02-26T12:14:08;5.95;;;4.30;;
47715;SDS011;33476;50.984;3.538;2024-02-26T12:16:37;5.80;;;4.00;;
47715;SDS011;33476;50.984;3.538;2024-02-26T12:19:05;4.32;;;3.00;;
47715;SDS011;33476;50.984;3.538;2024-02-26T12:21:35;5.75;;;3.83;;
47715;SDS011;33476;50.984;3.538;2024-02-26T12:24:11;4.30;;;3.40;;
47715;SDS011;33476;50.984;3.538;2024-02-26T12:26:38;5.50;;;3.60;;
47715;SDS011;33476;50.984;3.538;2024-02-26T12:29:04;5.70;;;3.60;;
47715;SDS011;33476;50.984;3.538;2024-02-26T12:31:30;5.15;;;3.25;;
47715;SDS011;33476;50.984;3.538;2024-02-26T12:33:56;4.40;;;2.90;;
47715;SDS011;33476;50.984;3.538;2024-02-26T12:36:22;4.97;;;3.10;;
47715;SDS011;33476;50.984;3.538;2024-02-26T12:38:48;5.25;;;2.85;;
47715;SDS011;33476;50.984;3.538;2024-02-26T12:41:16;3.30;;;2.58;;
47715;SDS011;33476;50.984;3.538;2024-02-26T12:43:41;4.60;;;2.72;;
47715;SDS011;33476;50.984;3.538;2024-02-26T12:46:07;4.97;;;2.67;;
47715;SDS011;33476;50.984;3.538;2024-02-26T12:48:32;3.55;;;2.70;;
47715;SDS011;33476;50.984;3.538;2024-02-26T12:50:58;3.17;;;2.10;;
47715;SDS011;33476;50.984;3.538;2024-02-26T12:53:24;2.80;;;2.17;;
47715;SDS011;33476;50.984;3.538;2024-02-26T12:55:50;3.40;;;2.22;;
47715;SDS011;33476;50.984;3.538;2024-02-26T12:58:16;4.28;;;2.38;;
47715;SDS011;33476;50.984;3.538;2024-02-26T13:00:42;3.75;;;2.17;;
47715;SDS011;33476;50.984;3.538;2024-02-26T13:03:08;3.13;;;1.90;;
47715;SDS011;33476;50.984;3.538;2024-02-26T13:05:34;2.85;;;1.75;;
47715;SDS011;33476;50.984;3.538;2024-02-26T13:08:00;3.03;;;2.05;;
47715;SDS011;33476;50.984;3.538;2024-02-26T13:10:26;5.22;;;2.47;;
47715;SDS011;33476;50.984;3.538;2024-02-26T13:12:51;5.00;;;1.98;;
47715;SDS011;33476;50.984;3.538;2024-02-26T13:15:17;2.55;;;1.90;;
47715;SDS011;33476;50.984;3.538;2024-02-26T13:17:44;4.15;;;2.17;;
47715;SDS011;33476;50.984;3.538;2024-02-26T13:20:10;3.53;;;2.10;;
47715;SDS011;33476;50.984;3.538;2024-02-26T13:22:36;2.95;;;1.73;;
47715;SDS011;33476;50.984;3.538;2024-02-26T13:25:02;3.88;;;1.80;;
47715;SDS011;33476;50.984;3.538;2024-02-26T13:27:28;3.80;;;1.88;;
47715;SDS011;33476;50.984;3.538;2024-02-26T13:32:31;2.47;;;1.88;;
47715;SDS011;33476;50.984;3.538;2024-02-26T13:35:07;9.38;;;2.50;;
47715;SDS011;33476;50.984;3.538;2024-02-26T13:37:34;3.03;;;2.00;;
47715;SDS011;33476;50.984;3.538;2024-02-26T13:40:00;2.85;;;2.00;;
47715;SDS011;33476;50.984;3.538;2024-02-26T13:42:29;3.22;;;2.15;;
47715;SDS011;33476;50.984;3.538;2024-02-26T13:44:54;3.05;;;1.90;;
47715;SDS011;33476;50.984;3.538;2024-02-26T13:47:20;3.13;;;2.30;;
47715;SDS011;33476;50.984;3.538;2024-02-26T13:49:45;3.35;;;1.90;;
47715;SDS011;33476;50.984;3.538;2024-02-26T13:52:10;11.18;;;2.20;;
47715;SDS011;33476;50.984;3.538;2024-02-26T13:54:36;3.75;;;2.30;;
47715;SDS011;33476;50.984;3.538;2024-02-26T13:57:03;4.10;;;2.20;;
47715;SDS011;33476;50.984;3.538;2024-02-26T13:59:29;2.10;;;1.88;;
47715;SDS011;33476;50.984;3.538;2024-02-26T14:01:54;3.50;;;2.53;;
47715;SDS011;33476;50.984;3.538;2024-02-26T14:04:20;3.40;;;2.03;;
47715;SDS011;33476;50.984;3.538;2024-02-26T14:06:45;3.58;;;2.63;;
47715;SDS011;33476;50.984;3.538;2024-02-26T14:09:11;2.75;;;2.13;;
47715;SDS011;33476;50.984;3.538;2024-02-26T14:11:36;3.38;;;2.53;;
47715;SDS011;33476;50.984;3.538;2024-02-26T14:14:02;3.17;;;2.28;;
47715;SDS011;33476;50.984;3.538;2024-02-26T14:16:28;2.25;;;1.83;;
47715;SDS011;33476;50.984;3.538;2024-02-26T14:18:53;2.60;;;1.80;;
47715;SDS011;33476;50.984;3.538;2024-02-26T14:21:18;2.65;;;2.20;;
47715;SDS011;33476;50.984;3.538;2024-02-26T14:23:44;2.20;;;1.58;;
47715;SDS011;33476;50.984;3.538;2024-02-26T14:26:09;3.25;;;2.30;;
47715;SDS011;33476;50.984;3.538;2024-02-26T14:28:35;2.92;;;1.60;;
47715;SDS011;33476;50.984;3.538;2024-02-26T14:31:00;2.15;;;1.90;;
47715;SDS011;33476;50.984;3.538;2024-02-26T14:33:26;3.30;;;1.80;;
47715;SDS011;33476;50.984;3.538;2024-02-26T14:35:51;2.88;;;2.22;;
47715;SDS011;33476;50.984;3.538;2024-02-26T14:38:16;3.08;;;2.10;;
47715;SDS011;33476;50.984;3.538;2024-02-26T14:40:42;3.58;;;2.08;;
47715;SDS011;33476;50.984;3.538;2024-02-26T14:43:07;5.03;;;2.20;;
47715;SDS011;33476;50.984;3.538;2024-02-26T14:45:34;3.33;;;2.50;;
47715;SDS011;33476;50.984;3.538;2024-02-26T14:48:00;2.53;;;2.03;;
47715;SDS011;33476;50.984;3.538;2024-02-26T14:50:25;3.90;;;2.40;;
47715;SDS011;33476;50.984;3.538;2024-02-26T14:52:51;3.75;;;2.70;;
47715;SDS011;33476;50.984;3.538;2024-02-26T14:55:16;3.55;;;2.25;;